Aérodrome :







RETROUVEZ-NOUS SUR...

 
LOGIN :

S'inscrire | Disclaimer

   EN    FR    IT 

 









Légende :    VFR   VFR Marginal   IFR   IFR Intensif   IFR Très Intensif
Visi : 
Plafond : 
>= 8 km
>= 3000ft
5 à 8 km
1000 à 3000 ft
1500m à 5 km
500 à 1000 ft
800 à 1500m
200 à 500 ft
< 800m
< 200 ft
Symboles :   Orages  Brouillard  Fortes neiges  Fortes précipitations  Vent > 20 kt






- Altitude de l'aérodrome : 1663 ft
- Code IATA : SLK


KSLK - Adirondack Regional

DERNIER METAR :
  • 230121Z AUTO 28009G15KT 240V330 10SM BKN022 OVC033 M04/M08 A2980 RMK AO2 T10441083

METARs EXPIRÉS :
  • 230051Z AUTO VRB05KT 10SM BKN031 BKN035 M04/M08 A2979 RMK AO2 SLP102 T10441083
  • 230027Z AUTO 27008G15KT 240V310 10SM SCT025 OVC032 M04/M08 A2977 RMK AO2 T10441083
  • 222351Z AUTO 28012G19KT 10SM BKN021 OVC028 M04/M08 A2976 RMK AO2 SNE09 SLP093 P0000 60003 T10391078 10011 21039 51040
  • 222330Z AUTO 29007G18KT 230V350 10SM BKN021 OVC028 M04/M07 A2975 RMK AO2 SNE09 P0000 T10391072
  • 222308Z AUTO 29010G17KT 260V330 8SM -SN SCT022 BKN030 OVC035 M03/M08 A2973 RMK AO2 P0000 T10331078
  • 222251Z AUTO 27007G18KT 230V300 8SM -SN FEW018 BKN024 OVC031 M03/M07 A2972 RMK AO2 SNB06 SLP080 P0000 T10331072

TAF KSLK
Valide du 23 à 01h jusqu'au 24 à 00h UTC


230057Z 2301/2324 28010KT P6SM SCT030 BKN035
FM230300 28013KT P6SM BKN150
FM230600 27012KT P6SM FEW200 WS020/30040KT
FM231000 24011KT P6SM SCT070



MET'MAP, la Météo Aéronautique d'un coup d'oeil ! - Copyright ORBIFLY Décembre 2007 - Disclaimer

ORBIFLY MET'MAP TEAM :

Programmation & Développement : Alexandra Zaïnal
Conception & Développement : Baudouin d'Aumeries
Co-Programmation & Développement : Marc-Olivier Méhu
Soutien technique & logistique : Manuel Goepfert

Contact : metmap@orbifly.com




SOURCES & CREDITS :

   NOAA